Time,TemperatureF,DewpointF,PressureIn,WindDirection,WindDirectionDegrees,WindSpeedMPH,WindSpeedGustMPH,Humidity,HourlyPrecipIn,Conditions,Clouds,dailyrainin,SoftwareType,DateUTC
2013-08-23 00:04:00,71.2,64.4,29.35,NNE,21,2.0,2.0,79,0.00,RA,,0.00,WeatherDisplay:10.37,2013-08-23 05:04:00,
2013-08-23 00:09:00,71.4,64.6,29.35,NNE,29,2.0,2.0,79,0.00,RA,,0.00,WeatherDisplay:10.37,2013-08-23 05:09:00,
2013-08-23 00:14:00,71.4,64.6,29.35,NE,40,3.0,4.0,79,0.00,SCT,,0.00,WeatherDisplay:10.37,2013-08-23 05:14:00,
2013-08-23 00:19:00,71.8,64.5,29.35,NE,38,5.0,5.0,78,0.00,SCT,,0.00,WeatherDisplay:10.37,2013-08-23 05:19:00,
2013-08-23 00:24:00,71.8,64.5,29.35,NE,35,5.0,5.0,78,0.00,SCT,,0.00,WeatherDisplay:10.37,2013-08-23 05:24:00,
2013-08-23 00:29:00,71.8,64.2,29.35,NNE,33,6.0,6.0,77,0.00,SCT,,0.00,WeatherDisplay:10.37,2013-08-23 05:29:00,
2013-08-23 00:34:00,72.0,64.4,29.35,NE,34,6.0,6.0,77,0.00,SCT,,0.00,WeatherDisplay:10.37,2013-08-23 05:34:00,
2013-08-23 00:39:00,72.0,64.4,29.35,NE,40,6.0,6.0,77,0.00,SCT,,0.00,WeatherDisplay:10.37,2013-08-23 05:39:00,
2013-08-23 00:44:00,72.0,64.0,29.35,NE,40,7.0,7.0,76,0.00,SCT,,0.00,WeatherDisplay:10.37,2013-08-23 05:44:00,
2013-08-23 00:49:00,72.0,64.0,29.35,NE,41,7.0,7.0,76,0.00,BKN,,0.00,WeatherDisplay:10.37,2013-08-23 05:49:00,
2013-08-23 00:54:00,72.0,64.0,29.35,NE,45,7.0,7.0,76,0.00,BKN,,0.00,WeatherDisplay:10.37,2013-08-23 05:54:00,
2013-08-23 00:59:00,71.8,63.8,29.35,NE,46,7.0,7.0,76,0.00,BKN,,0.00,WeatherDisplay:10.37,2013-08-23 05:59:00,
2013-08-23 01:04:00,71.6,64.0,29.35,NE,54,7.0,7.0,77,0.00,SCT,,0.00,WeatherDisplay:10.37,2013-08-23 06:04:00,
2013-08-23 01:09:00,71.6,64.0,29.35,ENE,61,7.0,7.0,77,0.00,SCT,,0.00,WeatherDisplay:10.37,2013-08-23 06:09:00,
2013-08-23 01:14:00,71.4,63.8,29.35,East,84,7.0,7.0,77,0.00,SCT,,0.00,WeatherDisplay:10.37,2013-08-23 06:14:00,
2013-08-23 01:19:00,71.4,64.2,29.35,ENE,72,7.0,7.0,78,0.00,SCT,,0.00,WeatherDisplay:10.37,2013-08-23 06:19:00,
2013-08-23 01:24:00,71.6,64.0,29.35,ENE,58,7.0,7.0,77,0.00,SCT,,0.00,WeatherDisplay:10.37,2013-08-23 06:24:00,
2013-08-23 01:29:00,71.6,64.0,29.35,NE,51,7.0,7.0,77,0.00,SCT,,0.00,WeatherDisplay:10.37,2013-08-23 06:29:00,
2013-08-23 01:34:00,71.4,64.2,29.35,NE,49,7.0,7.0,78,0.00,SCT,,0.00,WeatherDisplay:10.37,2013-08-23 06:34:00,
2013-08-23 01:39:00,71.4,64.6,29.35,NE,47,7.0,7.0,79,0.00,SCT,,0.00,WeatherDisplay:10.37,2013-08-23 06:39:00,
2013-08-23 01:44:00,71.4,64.6,29.35,NNE,22,7.0,7.0,79,0.00,SCT,,0.00,WeatherDisplay:10.37,2013-08-23 06:44:00,
2013-08-23 01:49:00,71.4,64.6,29.38,NW,310,7.0,7.0,79,0.00,SCT,,0.00,WeatherDisplay:10.37,2013-08-23 06:49:00,
2013-08-23 01:54:00,71.6,64.4,29.38,WNW,296,6.0,7.0,78,0.00,SCT,,0.00,WeatherDisplay:10.37,2013-08-23 06:54:00,
2013-08-23 01:59:00,71.1,64.2,29.38,NW,321,5.0,6.0,79,0.09,RA,,0.09,WeatherDisplay:10.37,2013-08-23 06:59:00,
2013-08-23 02:04:00,70.9,64.0,29.35,NE,53,5.0,5.0,79,0.01,RA,,0.13,WeatherDisplay:10.37,2013-08-23 07:04:00,
2013-08-23 02:09:00,70.9,64.0,29.35,ENE,76,5.0,5.0,79,0.01,RA,,0.14,WeatherDisplay:10.37,2013-08-23 07:09:00,
2013-08-23 02:14:00,70.9,64.0,29.35,ENE,76,6.0,6.0,79,0.00,RA,,0.14,WeatherDisplay:10.37,2013-08-23 07:14:00,
2013-08-23 02:19:00,70.7,63.9,29.35,NE,51,6.0,6.0,79,0.00,BKN,,0.14,WeatherDisplay:10.37,2013-08-23 07:19:00,
2013-08-23 02:24:00,70.7,63.9,29.35,NE,43,6.0,6.0,79,0.00,BKN,,0.14,WeatherDisplay:10.37,2013-08-23 07:24:00,
2013-08-23 02:29:00,70.7,63.9,29.35,NE,49,5.0,5.0,79,0.00,BKN,,0.14,WeatherDisplay:10.37,2013-08-23 07:29:00,
2013-08-23 02:34:00,70.7,63.9,29.35,NE,56,5.0,5.0,79,0.00,BKN,,0.14,WeatherDisplay:10.37,2013-08-23 07:34:00,
2013-08-23 02:39:00,70.7,63.9,29.35,ENE,59,3.0,5.0,79,0.00,BKN,,0.14,WeatherDisplay:10.37,2013-08-23 07:39:00,
2013-08-23 02:44:00,70.2,64.1,29.35,ENE,67,5.0,5.0,81,0.00,BKN,,0.14,WeatherDisplay:10.37,2013-08-23 07:44:00,
2013-08-23 02:49:00,70.2,64.1,29.35,ENE,70,5.0,5.0,81,0.00,OVC,,0.14,WeatherDisplay:10.37,2013-08-23 07:49:00,
2013-08-23 02:54:00,70.2,64.1,29.35,ENE,72,5.0,5.0,81,0.00,OVC,,0.14,WeatherDisplay:10.37,2013-08-23 07:54:00,
2013-08-23 02:59:00,70.2,64.1,29.35,ENE,76,5.0,5.0,81,0.00,OVC,,0.14,WeatherDisplay:10.37,2013-08-23 07:59:00,
2013-08-23 03:04:00,70.2,64.1,29.35,East,95,5.0,5.0,81,0.00,BKN,,0.14,WeatherDisplay:10.37,2013-08-23 08:04:00,
2013-08-23 03:09:00,70.2,64.1,29.35,ESE,103,6.0,6.0,81,0.00,BKN,,0.14,WeatherDisplay:10.37,2013-08-23 08:09:00,
2013-08-23 03:14:00,70.2,64.1,29.35,ESE,107,6.0,6.0,81,0.00,BKN,,0.14,WeatherDisplay:10.37,2013-08-23 08:14:00,
2013-08-23 03:19:00,70.2,64.1,29.35,East,98,6.0,6.0,81,0.00,BKN,,0.14,WeatherDisplay:10.37,2013-08-23 08:19:00,
2013-08-23 03:24:00,70.2,64.1,29.35,East,93,6.0,6.0,81,0.01,RA,,0.16,WeatherDisplay:10.37,2013-08-23 08:24:00,
2013-08-23 03:29:00,70.2,64.1,29.35,East,87,5.0,5.0,81,0.00,RA,,0.16,WeatherDisplay:10.37,2013-08-23 08:29:00,
2013-08-23 03:34:00,69.4,63.7,29.35,ESE,120,3.0,5.0,82,0.00,CLR,,0.16,WeatherDisplay:10.37,2013-08-23 08:34:00,
2013-08-23 03:39:00,69.4,63.7,29.35,SE,138,3.0,3.0,82,0.00,CLR,,0.16,WeatherDisplay:10.37,2013-08-23 08:39:00,
2013-08-23 03:49:00,69.4,63.7,29.35,SE,133,2.0,3.0,82,0.00,CLR,,0.16,WeatherDisplay:10.37,2013-08-23 08:49:00,
2013-08-23 03:54:00,69.4,63.7,29.35,SE,129,2.0,2.0,82,0.00,CLR,,0.16,WeatherDisplay:10.37,2013-08-23 08:54:00,
2013-08-23 03:59:00,69.4,63.7,29.38,ESE,118,1.0,2.0,82,0.00,CLR,,0.16,WeatherDisplay:10.37,2013-08-23 08:59:00,
2013-08-23 04:04:00,69.4,63.7,29.38,ESE,115,1.0,1.0,82,0.00,SCT,,0.16,WeatherDisplay:10.37,2013-08-23 09:04:00,
2013-08-23 04:09:00,69.1,63.4,29.38,ESE,115,1.0,1.0,82,0.00,SCT,,0.16,WeatherDisplay:10.37,2013-08-23 09:09:00,
2013-08-23 04:19:00,69.1,63.4,29.35,ESE,115,1.0,1.0,82,0.00,SCT,,0.16,WeatherDisplay:10.37,2013-08-23 09:19:00,
2013-08-23 04:24:00,69.1,63.4,29.35,ESE,115,1.0,1.0,82,0.00,SCT,,0.16,WeatherDisplay:10.37,2013-08-23 09:24:00,
2013-08-23 04:29:00,69.1,63.4,29.38,ESE,115,0.0,1.0,82,0.00,SCT,,0.16,WeatherDisplay:10.37,2013-08-23 09:29:00,
2013-08-23 04:34:00,69.1,63.4,29.38,ESE,115,0.0,0.0,82,0.00,BKN,,0.16,WeatherDisplay:10.37,2013-08-23 09:34:00,
2013-08-23 04:39:00,69.1,63.4,29.38,ESE,115,0.0,0.0,82,0.00,BKN,,0.16,WeatherDisplay:10.37,2013-08-23 09:39:00,
2013-08-23 04:44:00,69.1,63.4,29.38,ESE,115,0.0,0.0,82,0.00,BKN,,0.16,WeatherDisplay:10.37,2013-08-23 09:44:00,
2013-08-23 04:49:00,69.1,63.4,29.38,ESE,115,0.0,0.0,82,0.00,SCT,,0.16,WeatherDisplay:10.37,2013-08-23 09:49:00,
2013-08-23 04:54:00,69.1,63.4,29.35,ESE,115,0.0,0.0,82,0.00,SCT,,0.16,WeatherDisplay:10.37,2013-08-23 09:54:00,
2013-08-23 04:59:00,69.1,63.4,29.35,ESE,115,0.0,0.0,82,0.00,SCT,,0.16,WeatherDisplay:10.37,2013-08-23 09:59:00,
2013-08-23 05:04:00,68.2,62.5,29.35,ESE,115,0.0,0.0,82,0.00,CLR,,0.16,WeatherDisplay:10.37,2013-08-23 10:04:00,
2013-08-23 05:09:00,68.2,62.5,29.35,ESE,115,0.0,0.0,82,0.00,CLR,,0.16,WeatherDisplay:10.37,2013-08-23 10:09:00,
2013-08-23 05:14:00,68.2,62.5,29.35,ESE,115,0.0,0.0,82,0.00,CLR,,0.16,WeatherDisplay:10.37,2013-08-23 10:14:00,
2013-08-23 05:19:00,68.2,62.5,29.35,ESE,115,0.0,0.0,82,0.00,CLR,,0.16,WeatherDisplay:10.37,2013-08-23 10:19:00,
2013-08-23 05:24:00,68.2,62.5,29.35,ESE,115,0.0,0.0,82,0.00,CLR,,0.16,WeatherDisplay:10.37,2013-08-23 10:24:00,
2013-08-23 05:29:00,68.4,63.0,29.35,ESE,115,0.0,0.0,83,0.00,CLR,,0.16,WeatherDisplay:10.37,2013-08-23 10:29:00,
2013-08-23 05:34:00,68.4,63.0,29.35,ESE,115,0.0,0.0,83,0.00,CLR,,0.16,WeatherDisplay:10.37,2013-08-23 10:34:00,
2013-08-23 05:39:00,68.4,63.0,29.38,ESE,115,0.0,0.0,83,0.00,CLR,,0.16,WeatherDisplay:10.37,2013-08-23 10:39:00,
2013-08-23 05:44:00,67.6,62.3,29.38,ESE,115,0.0,0.0,83,0.00,CLR,,0.16,WeatherDisplay:10.37,2013-08-23 10:44:00,
2013-08-23 05:49:00,67.3,62.3,29.38,ESE,115,0.0,0.0,84,0.00,CLR,,0.16,WeatherDisplay:10.37,2013-08-23 10:49:00,
2013-08-23 05:54:00,67.3,62.3,29.38,ESE,115,0.0,0.0,84,0.00,CLR,,0.16,WeatherDisplay:10.37,2013-08-23 10:54:00,
2013-08-23 05:59:00,67.3,62.3,29.38,ESE,115,0.0,0.0,84,0.00,CLR,,0.16,WeatherDisplay:10.37,2013-08-23 10:59:00,
2013-08-23 06:04:00,67.3,62.3,29.38,ESE,115,0.0,0.0,84,0.00,CLR,,0.16,WeatherDisplay:10.37,2013-08-23 11:04:00,
2013-08-23 06:09:00,67.3,62.3,29.38,ESE,115,0.0,0.0,84,0.00,CLR,,0.16,WeatherDisplay:10.37,2013-08-23 11:09:00,
2013-08-23 06:14:00,67.3,62.3,29.38,ESE,115,0.0,0.0,84,0.00,CLR,,0.16,WeatherDisplay:10.37,2013-08-23 11:14:00,
2013-08-23 06:19:00,66.9,61.9,29.38,ENE,74,0.0,0.0,84,0.00,CLR,,0.16,WeatherDisplay:10.37,2013-08-23 11:19:00,
2013-08-23 06:24:00,67.1,62.1,29.38,NE,41,0.0,0.0,84,0.00,CLR,,0.16,WeatherDisplay:10.37,2013-08-23 11:24:00,
2013-08-23 06:29:00,66.9,61.9,29.38,NNE,20,0.0,0.0,84,0.00,CLR,,0.16,WeatherDisplay:10.37,2013-08-23 11:29:00,
2013-08-23 06:34:00,66.6,61.6,29.38,NNE,14,0.0,0.0,84,0.00,CLR,,0.16,WeatherDisplay:10.37,2013-08-23 11:34:00,
2013-08-23 06:39:00,66.7,61.7,29.38,North,11,0.0,0.0,84,0.00,CLR,,0.16,WeatherDisplay:10.37,2013-08-23 11:39:00,
2013-08-23 06:44:00,66.9,61.9,29.38,North,10,0.0,0.0,84,0.00,CLR,,0.16,WeatherDisplay:10.37,2013-08-23 11:44:00,
2013-08-23 06:49:00,67.1,62.4,29.38,North,10,0.0,0.0,85,0.00,CLR,,0.16,WeatherDisplay:10.37,2013-08-23 11:49:00,
2013-08-23 06:54:00,67.3,62.6,29.38,North,10,0.0,0.0,85,0.00,CLR,,0.16,WeatherDisplay:10.37,2013-08-23 11:54:00,
2013-08-23 06:59:00,67.5,62.8,29.38,North,10,0.0,0.0,85,0.00,CLR,,0.16,WeatherDisplay:10.37,2013-08-23 11:59:00,
2013-08-23 07:04:00,67.5,62.8,29.38,North,10,0.0,0.0,85,0.00,CLR,,0.16,WeatherDisplay:10.37,2013-08-23 12:04:00,
2013-08-23 07:09:00,67.5,62.8,29.38,North,10,0.0,0.0,85,0.00,CLR,,0.16,WeatherDisplay:10.37,2013-08-23 12:09:00,
2013-08-23 07:14:00,67.5,62.8,29.38,North,10,0.0,0.0,85,0.00,CLR,,0.16,WeatherDisplay:10.37,2013-08-23 12:14:00,
2013-08-23 07:19:00,67.5,62.8,29.38,North,10,0.0,0.0,85,0.00,CLR,,0.16,WeatherDisplay:10.37,2013-08-23 12:19:00,
2013-08-23 07:24:00,67.5,62.8,29.38,North,10,0.0,0.0,85,0.00,CLR,,0.16,WeatherDisplay:10.37,2013-08-23 12:24:00,
2013-08-23 07:29:00,67.5,62.8,29.38,North,10,0.0,0.0,85,0.00,CLR,,0.16,WeatherDisplay:10.37,2013-08-23 12:29:00,
2013-08-23 07:34:00,69.6,64.6,29.38,North,10,0.0,0.0,84,0.00,CLR,,0.16,WeatherDisplay:10.37,2013-08-23 12:34:00,
2013-08-23 07:39:00,69.6,64.6,29.38,North,10,0.0,0.0,84,0.00,CLR,,0.16,WeatherDisplay:10.37,2013-08-23 12:39:00,
2013-08-23 07:44:00,70.2,65.1,29.38,North,10,0.0,0.0,84,0.00,CLR,,0.16,WeatherDisplay:10.37,2013-08-23 12:44:00,
2013-08-23 07:49:00,70.9,65.8,29.38,North,10,0.0,0.0,84,0.00,CLR,,0.16,WeatherDisplay:10.37,2013-08-23 12:49:00,
2013-08-23 07:54:00,71.1,66.0,29.38,North,10,0.0,0.0,84,0.00,CLR,,0.16,WeatherDisplay:10.37,2013-08-23 12:54:00,
2013-08-23 07:59:00,71.6,66.2,29.38,North,10,0.0,0.0,83,0.00,CLR,,0.16,WeatherDisplay:10.37,2013-08-23 12:59:00,
2013-08-23 08:04:00,72.5,67.0,29.38,North,10,0.0,0.0,83,0.00,CLR,,0.16,WeatherDisplay:10.37,2013-08-23 13:04:00,
2013-08-23 08:09:00,73.0,67.6,29.38,NNE,12,0.0,0.0,83,0.00,CLR,,0.16,WeatherDisplay:10.37,2013-08-23 13:09:00,
2013-08-23 08:14:00,73.4,67.6,29.38,NE,37,0.0,0.0,82,0.00,CLR,,0.16,WeatherDisplay:10.37,2013-08-23 13:14:00,
2013-08-23 08:19:00,73.6,67.7,29.38,NE,54,0.0,0.0,82,0.00,CLR,,0.16,WeatherDisplay:10.37,2013-08-23 13:19:00,
2013-08-23 08:24:00,73.6,67.7,29.38,NE,55,0.0,0.0,82,0.00,CLR,,0.16,WeatherDisplay:10.37,2013-08-23 13:24:00,
2013-08-23 08:39:00,74.7,68.4,29.38,ENE,72,1.0,1.0,81,0.00,CLR,,0.16,WeatherDisplay:10.37,2013-08-23 13:39:00,
2013-08-23 08:44:00,74.1,67.9,29.38,ENE,67,1.0,1.0,81,0.00,CLR,,0.16,WeatherDisplay:10.37,2013-08-23 13:44:00,
2013-08-23 08:49:00,74.8,68.3,29.38,ENE,58,1.0,1.0,80,0.00,CLR,,0.16,WeatherDisplay:10.37,2013-08-23 13:49:00,
2013-08-23 08:54:00,74.8,67.9,29.38,ENE,59,1.0,2.0,79,0.00,CLR,,0.16,WeatherDisplay:10.37,2013-08-23 13:54:00,
2013-08-23 08:59:00,75.4,68.0,29.38,ENE,62,2.0,2.0,78,0.00,CLR,,0.16,WeatherDisplay:10.37,2013-08-23 13:59:00,
2013-08-23 09:04:00,74.7,67.3,29.38,ENE,64,3.0,3.0,78,0.00,CLR,,0.16,WeatherDisplay:10.37,2013-08-23 14:04:00,
2013-08-23 09:09:00,75.0,67.3,29.38,ENE,60,3.0,4.0,77,0.00,CLR,,0.16,WeatherDisplay:10.37,2013-08-23 14:09:00,
2013-08-23 09:14:00,75.2,66.7,29.41,ENE,61,5.0,5.0,75,0.00,CLR,,0.16,WeatherDisplay:10.37,2013-08-23 14:14:00,
2013-08-23 09:19:00,76.1,68.0,29.41,ENE,65,6.0,6.0,76,0.00,CLR,,0.16,WeatherDisplay:10.37,2013-08-23 14:19:00,
2013-08-23 09:24:00,76.3,68.2,29.41,ENE,70,6.0,6.0,76,0.00,CLR,,0.16,WeatherDisplay:10.37,2013-08-23 14:24:00,
2013-08-23 09:29:00,76.8,68.7,29.41,ENE,74,6.0,6.0,76,0.00,CLR,,0.16,WeatherDisplay:10.37,2013-08-23 14:29:00,
2013-08-23 09:34:00,76.3,67.4,29.41,ENE,59,7.0,7.0,74,0.00,CLR,,0.16,WeatherDisplay:10.37,2013-08-23 14:34:00,
2013-08-23 09:39:00,76.8,67.9,29.41,ENE,58,7.0,7.0,74,0.00,CLR,,0.16,WeatherDisplay:10.37,2013-08-23 14:39:00,
2013-08-23 09:44:00,76.8,67.9,29.41,ENE,71,7.0,7.0,74,0.00,CLR,,0.16,WeatherDisplay:10.37,2013-08-23 14:44:00,
2013-08-23 09:49:00,77.7,68.8,29.41,ENE,72,7.0,7.0,74,0.00,CLR,,0.16,WeatherDisplay:10.37,2013-08-23 14:49:00,
2013-08-23 09:54:00,78.3,69.3,29.41,ENE,74,7.0,7.0,74,0.00,CLR,,0.16,WeatherDisplay:10.37,2013-08-23 14:54:00,
2013-08-23 09:59:00,78.3,69.3,29.41,East,83,8.0,8.0,74,0.00,CLR,,0.16,WeatherDisplay:10.37,2013-08-23 14:59:00,
2013-08-23 10:04:00,78.6,69.6,29.41,East,94,8.0,8.0,74,0.00,CLR,,0.16,WeatherDisplay:10.37,2013-08-23 15:04:00,
2013-08-23 10:09:00,78.8,69.4,29.41,East,93,8.0,8.0,73,0.00,CLR,,0.16,WeatherDisplay:10.37,2013-08-23 15:09:00,
2013-08-23 10:14:00,77.4,67.6,29.41,East,87,8.0,8.0,72,0.00,CLR,,0.16,WeatherDisplay:10.37,2013-08-23 15:14:00,
2013-08-23 10:19:00,78.3,67.7,29.41,ENE,67,8.0,8.0,70,0.00,CLR,,0.16,WeatherDisplay:10.37,2013-08-23 15:19:00,
2013-08-23 10:24:00,78.6,68.4,29.41,ENE,65,8.0,8.0,71,0.00,CLR,,0.16,WeatherDisplay:10.37,2013-08-23 15:24:00,
2013-08-23 10:29:00,77.9,66.9,29.41,East,84,9.0,9.0,69,0.00,CLR,,0.16,WeatherDisplay:10.37,2013-08-23 15:29:00,
2013-08-23 10:34:00,78.3,66.8,29.41,ENE,65,9.0,9.0,68,0.00,CLR,,0.16,WeatherDisplay:10.37,2013-08-23 15:34:00,
2013-08-23 10:39:00,78.6,67.6,29.41,ENE,62,9.0,9.0,69,0.00,CLR,,0.16,WeatherDisplay:10.37,2013-08-23 15:39:00,
2013-08-23 10:44:00,78.8,66.9,29.41,ENE,60,9.0,9.0,67,0.00,CLR,,0.16,WeatherDisplay:10.37,2013-08-23 15:44:00,
2013-08-23 10:49:00,79.2,67.7,29.41,ENE,74,9.0,9.0,68,0.00,CLR,,0.16,WeatherDisplay:10.37,2013-08-23 15:49:00,
2013-08-23 10:54:00,79.5,68.0,29.41,East,86,9.0,9.0,68,0.00,CLR,,0.16,WeatherDisplay:10.37,2013-08-23 15:54:00,
2013-08-23 10:59:00,79.7,68.2,29.41,East,86,9.0,9.0,68,0.00,CLR,,0.16,WeatherDisplay:10.37,2013-08-23 15:59:00,
2013-08-23 11:04:00,80.1,68.5,29.41,ENE,73,9.0,9.0,68,0.00,CLR,,0.16,WeatherDisplay:10.37,2013-08-23 16:04:00,
2013-08-23 11:09:00,80.1,68.5,29.41,ENE,69,9.0,9.0,68,0.00,CLR,,0.16,WeatherDisplay:10.37,2013-08-23 16:09:00,
2013-08-23 11:14:00,79.9,67.9,29.41,ENE,68,9.0,9.0,67,0.00,CLR,,0.16,WeatherDisplay:10.37,2013-08-23 16:14:00,
2013-08-23 11:19:00,80.2,68.3,29.41,ENE,78,9.0,9.0,67,0.00,CLR,,0.16,WeatherDisplay:10.37,2013-08-23 16:19:00,
2013-08-23 11:24:00,80.2,68.3,29.41,ENE,77,9.0,9.0,67,0.00,CLR,,0.16,WeatherDisplay:10.37,2013-08-23 16:24:00,
2013-08-23 11:29:00,79.7,66.9,29.41,ENE,71,9.0,9.0,65,0.00,CLR,,0.16,WeatherDisplay:10.37,2013-08-23 16:29:00,
2013-08-23 11:34:00,80.1,66.8,29.41,ENE,74,9.0,9.0,64,0.00,CLR,,0.16,WeatherDisplay:10.37,2013-08-23 16:34:00,
2013-08-23 11:39:00,80.4,67.6,29.41,ENE,77,9.0,9.0,65,0.00,CLR,,0.16,WeatherDisplay:10.37,2013-08-23 16:39:00,
2013-08-23 11:44:00,80.6,66.4,29.41,ENE,69,9.0,10.0,62,0.00,CLR,,0.16,WeatherDisplay:10.37,2013-08-23 16:44:00,
2013-08-23 11:49:00,80.8,67.0,29.41,ENE,68,9.0,10.0,63,0.00,CLR,,0.16,WeatherDisplay:10.37,2013-08-23 16:49:00,
2013-08-23 11:54:00,81.0,66.7,29.41,ENE,64,9.0,10.0,62,0.00,CLR,,0.16,WeatherDisplay:10.37,2013-08-23 16:54:00,
2013-08-23 11:59:00,81.3,67.5,29.41,ENE,58,9.0,10.0,63,0.00,CLR,,0.16,WeatherDisplay:10.37,2013-08-23 16:59:00,
2013-08-23 12:04:00,81.3,67.1,29.41,ENE,71,9.0,10.0,62,0.00,CLR,,0.16,WeatherDisplay:10.37,2013-08-23 17:04:00,
2013-08-23 12:09:00,81.7,67.9,29.41,East,81,9.0,10.0,63,0.00,CLR,,0.16,WeatherDisplay:10.37,2013-08-23 17:09:00,
2013-08-23 12:14:00,81.9,67.6,29.41,ENE,71,9.0,10.0,62,0.00,CLR,,0.16,WeatherDisplay:10.37,2013-08-23 17:14:00,
2013-08-23 12:19:00,81.9,67.1,29.41,ENE,69,9.0,10.0,61,0.00,CLR,,0.16,WeatherDisplay:10.37,2013-08-23 17:19:00,
2013-08-23 12:24:00,83.1,68.3,29.41,ENE,78,9.0,10.0,61,0.00,CLR,,0.16,WeatherDisplay:10.37,2013-08-23 17:24:00,
2013-08-23 12:29:00,82.2,66.0,29.41,ENE,66,9.0,9.0,58,0.00,CLR,,0.16,WeatherDisplay:10.37,2013-08-23 17:29:00,
2013-08-23 12:34:00,82.4,65.6,29.41,NE,54,9.0,9.0,57,0.00,CLR,,0.16,WeatherDisplay:10.37,2013-08-23 17:34:00,
2013-08-23 12:39:00,82.2,65.5,29.41,NE,51,9.0,9.0,57,0.00,CLR,,0.16,WeatherDisplay:10.37,2013-08-23 17:39:00,
2013-08-23 12:44:00,82.9,66.6,29.38,NE,56,9.0,9.0,58,0.00,CLR,,0.16,WeatherDisplay:10.37,2013-08-23 17:44:00,
2013-08-23 12:49:00,83.8,66.5,29.38,NE,54,9.0,10.0,56,0.00,CLR,,0.16,WeatherDisplay:10.37,2013-08-23 17:49:00,
2013-08-23 12:54:00,84.2,66.3,29.38,NE,54,9.0,9.0,55,0.00,CLR,,0.16,WeatherDisplay:10.37,2013-08-23 17:54:00,
2013-08-23 12:59:00,83.8,67.0,29.38,East,79,9.0,9.0,57,0.00,CLR,,0.16,WeatherDisplay:10.37,2013-08-23 17:59:00,
2013-08-23 13:04:00,83.5,66.1,29.38,East,83,9.0,10.0,56,0.00,CLR,,0.16,WeatherDisplay:10.37,2013-08-23 18:04:00,
2013-08-23 13:09:00,83.5,66.1,29.38,ENE,74,9.0,10.0,56,0.00,CLR,,0.16,WeatherDisplay:10.37,2013-08-23 18:09:00,
2013-08-23 13:14:00,83.1,65.8,29.38,ENE,57,9.0,10.0,56,0.00,CLR,,0.16,WeatherDisplay:10.37,2013-08-23 18:14:00,
2013-08-23 13:19:00,82.9,65.6,29.38,ENE,72,10.0,10.0,56,0.00,CLR,,0.16,WeatherDisplay:10.37,2013-08-23 18:19:00,
2013-08-23 13:24:00,82.9,65.6,29.38,East,84,10.0,10.0,56,0.00,CLR,,0.16,WeatherDisplay:10.37,2013-08-23 18:24:00,
2013-08-23 13:29:00,83.1,65.8,29.38,East,88,9.0,10.0,56,0.00,CLR,,0.16,WeatherDisplay:10.37,2013-08-23 18:29:00,
2013-08-23 13:34:00,83.5,66.6,29.38,East,99,9.0,10.0,57,0.00,CLR,,0.16,WeatherDisplay:10.37,2013-08-23 18:34:00,
2013-08-23 13:39:00,83.7,66.8,29.38,East,93,9.0,10.0,57,0.00,CLR,,0.16,WeatherDisplay:10.37,2013-08-23 18:39:00,
2013-08-23 13:44:00,83.7,66.3,29.38,East,84,9.0,9.0,56,0.00,CLR,,0.16,WeatherDisplay:10.37,2013-08-23 18:44:00,
2013-08-23 13:49:00,83.1,65.3,29.38,ENE,59,8.0,9.0,55,0.00,CLR,,0.16,WeatherDisplay:10.37,2013-08-23 18:49:00,
2013-08-23 13:54:00,82.0,64.3,29.38,NE,38,8.0,9.0,55,0.00,CLR,,0.16,WeatherDisplay:10.37,2013-08-23 18:54:00,
2013-08-23 13:59:00,83.5,66.6,29.38,NNE,27,8.0,8.0,57,0.00,CLR,,0.16,WeatherDisplay:10.37,2013-08-23 18:59:00,
2013-08-23 14:04:00,83.3,66.0,29.38,NE,41,8.0,8.0,56,0.00,CLR,,0.16,WeatherDisplay:10.37,2013-08-23 19:04:00,
2013-08-23 14:09:00,83.3,65.4,29.38,NE,35,7.0,8.0,55,0.00,CLR,,0.16,WeatherDisplay:10.37,2013-08-23 19:09:00,
2013-08-23 14:14:00,83.8,65.4,29.38,NE,56,7.0,7.0,54,0.00,CLR,,0.16,WeatherDisplay:10.37,2013-08-23 19:14:00,
2013-08-23 14:19:00,84.7,66.3,29.38,NE,56,7.0,7.0,54,0.00,CLR,,0.16,WeatherDisplay:10.37,2013-08-23 19:19:00,
2013-08-23 14:24:00,84.0,66.1,29.38,NE,44,7.0,7.0,55,0.00,CLR,,0.16,WeatherDisplay:10.37,2013-08-23 19:24:00,
2013-08-23 14:29:00,83.7,64.7,29.38,NNE,28,6.0,6.0,53,0.00,CLR,,0.16,WeatherDisplay:10.37,2013-08-23 19:29:00,
2013-08-23 14:34:00,84.6,65.0,29.38,NE,46,6.0,6.0,52,0.00,SCT,,0.16,WeatherDisplay:10.37,2013-08-23 19:34:00,
2013-08-23 14:39:00,84.7,65.7,29.38,ENE,67,6.0,6.0,53,0.00,SCT,,0.16,WeatherDisplay:10.37,2013-08-23 19:39:00,
2013-08-23 14:44:00,84.7,65.7,29.38,East,83,7.0,7.0,53,0.00,SCT,,0.16,WeatherDisplay:10.37,2013-08-23 19:44:00,
2013-08-23 14:49:00,84.6,65.0,29.38,East,92,6.0,7.0,52,0.00,SCT,,0.16,WeatherDisplay:10.37,2013-08-23 19:49:00,
2013-08-23 14:54:00,84.7,65.2,29.38,East,89,6.0,6.0,52,0.00,SCT,,0.16,WeatherDisplay:10.37,2013-08-23 19:54:00,
2013-08-23 14:59:00,84.4,65.4,29.38,East,95,6.0,6.0,53,0.00,SCT,,0.16,WeatherDisplay:10.37,2013-08-23 19:59:00,
2013-08-23 15:04:00,84.7,65.7,29.38,ESE,114,6.0,6.0,53,0.00,SCT,,0.16,WeatherDisplay:10.37,2013-08-23 20:04:00,
2013-08-23 15:09:00,84.7,65.7,29.38,East,94,6.0,6.0,53,0.00,SCT,,0.16,WeatherDisplay:10.37,2013-08-23 20:09:00,
2013-08-23 15:14:00,84.9,66.4,29.38,ENE,72,6.0,6.0,54,0.00,SCT,,0.16,WeatherDisplay:10.37,2013-08-23 20:14:00,
2013-08-23 15:19:00,85.3,66.8,29.35,East,90,6.0,6.0,54,0.00,SCT,,0.16,WeatherDisplay:10.37,2013-08-23 20:19:00,
2013-08-23 15:24:00,85.3,66.8,29.35,East,94,6.0,6.0,54,0.00,SCT,,0.16,WeatherDisplay:10.37,2013-08-23 20:24:00,
2013-08-23 15:29:00,85.5,66.9,29.35,ENE,61,6.0,6.0,54,0.00,SCT,,0.16,WeatherDisplay:10.37,2013-08-23 20:29:00,
2013-08-23 15:34:00,84.6,66.1,29.35,ENE,59,6.0,6.0,54,0.00,SCT,,0.16,WeatherDisplay:10.37,2013-08-23 20:34:00,
2013-08-23 15:39:00,83.8,65.9,29.35,ENE,71,6.0,6.0,55,0.00,SCT,,0.16,WeatherDisplay:10.37,2013-08-23 20:39:00,
2013-08-23 15:44:00,84.2,65.8,29.35,NE,49,6.0,6.0,54,0.00,SCT,,0.16,WeatherDisplay:10.37,2013-08-23 20:44:00,
2013-08-23 15:49:00,83.5,65.1,29.35,NE,51,6.0,6.0,54,0.00,SCT,,0.16,WeatherDisplay:10.37,2013-08-23 20:49:00,
2013-08-23 15:54:00,83.8,65.9,29.35,NE,55,6.0,6.0,55,0.00,SCT,,0.16,WeatherDisplay:10.37,2013-08-23 20:54:00,
2013-08-23 15:59:00,84.7,66.3,29.35,ENE,62,5.0,6.0,54,0.00,SCT,,0.16,WeatherDisplay:10.37,2013-08-23 20:59:00,
2013-08-23 16:04:00,84.2,65.2,29.35,NE,56,5.0,5.0,53,0.00,SCT,,0.16,WeatherDisplay:10.37,2013-08-23 21:04:00,
2013-08-23 16:09:00,84.4,65.9,29.35,ENE,68,6.0,6.0,54,0.00,SCT,,0.16,WeatherDisplay:10.37,2013-08-23 21:09:00,
2013-08-23 16:14:00,84.9,66.4,29.35,East,93,5.0,5.0,54,0.00,SCT,,0.16,WeatherDisplay:10.37,2013-08-23 21:14:00,
2013-08-23 16:19:00,85.3,66.8,29.35,East,99,6.0,6.0,54,0.00,SCT,,0.16,WeatherDisplay:10.37,2013-08-23 21:19:00,
2013-08-23 16:24:00,85.3,66.8,29.35,East,97,6.0,6.0,54,0.00,SCT,,0.16,WeatherDisplay:10.37,2013-08-23 21:24:00,
2013-08-23 16:29:00,85.1,66.0,29.35,ENE,77,6.0,6.0,53,0.00,SCT,,0.16,WeatherDisplay:10.37,2013-08-23 21:29:00,
2013-08-23 16:34:00,85.3,66.2,29.35,ENE,72,7.0,7.0,53,0.00,CLR,,0.16,WeatherDisplay:10.37,2013-08-23 21:34:00,
2013-08-23 16:39:00,85.3,66.2,29.35,East,80,7.0,7.0,53,0.00,CLR,,0.16,WeatherDisplay:10.37,2013-08-23 21:39:00,
2013-08-23 16:44:00,85.6,67.1,29.35,East,86,7.0,7.0,54,0.00,CLR,,0.16,WeatherDisplay:10.37,2013-08-23 21:44:00,
2013-08-23 16:49:00,84.9,65.9,29.35,East,91,6.0,7.0,53,0.00,CLR,,0.16,WeatherDisplay:10.37,2013-08-23 21:49:00,
2013-08-23 16:54:00,84.2,65.2,29.35,East,94,6.0,6.0,53,0.00,CLR,,0.16,WeatherDisplay:10.37,2013-08-23 21:54:00,
2013-08-23 16:59:00,84.0,65.6,29.35,East,94,6.0,6.0,54,0.00,CLR,,0.16,WeatherDisplay:10.37,2013-08-23 21:59:00,
2013-08-23 17:04:00,84.2,65.2,29.35,East,98,6.0,6.0,53,0.00,CLR,,0.16,WeatherDisplay:10.37,2013-08-23 22:04:00,
2013-08-23 17:09:00,83.5,65.1,29.35,East,84,6.0,6.0,54,0.00,CLR,,0.16,WeatherDisplay:10.37,2013-08-23 22:09:00,
2013-08-23 17:14:00,83.5,65.6,29.35,ENE,73,6.0,6.0,55,0.00,CLR,,0.16,WeatherDisplay:10.37,2013-08-23 22:14:00,
2013-08-23 17:19:00,83.3,64.9,29.35,East,82,6.0,6.0,54,0.00,CLR,,0.16,WeatherDisplay:10.37,2013-08-23 22:19:00,
2013-08-23 17:24:00,83.1,65.3,29.35,East,88,6.0,6.0,55,0.00,CLR,,0.16,WeatherDisplay:10.37,2013-08-23 22:24:00,
2013-08-23 17:29:00,83.1,65.3,29.35,East,87,6.0,6.0,55,0.00,CLR,,0.16,WeatherDisplay:10.37,2013-08-23 22:29:00,
2013-08-23 17:34:00,82.6,64.8,29.35,East,84,6.0,6.0,55,0.00,CLR,,0.16,WeatherDisplay:10.37,2013-08-23 22:34:00,
2013-08-23 17:39:00,82.6,64.8,29.35,East,86,6.0,6.0,55,0.00,CLR,,0.16,WeatherDisplay:10.37,2013-08-23 22:39:00,
2013-08-23 17:44:00,82.4,65.1,29.35,East,91,6.0,6.0,56,0.00,CLR,,0.16,WeatherDisplay:10.37,2013-08-23 22:44:00,
2013-08-23 17:49:00,82.2,65.5,29.35,East,95,6.0,6.0,57,0.00,CLR,,0.16,WeatherDisplay:10.37,2013-08-23 22:49:00,
2013-08-23 17:54:00,82.0,64.8,29.35,East,89,6.0,6.0,56,0.00,CLR,,0.16,WeatherDisplay:10.37,2013-08-23 22:54:00,
2013-08-23 17:59:00,81.9,64.6,29.35,East,92,6.0,6.0,56,0.00,CLR,,0.16,WeatherDisplay:10.37,2013-08-23 22:59:00,
2013-08-23 18:04:00,81.5,64.8,29.35,East,94,7.0,7.0,57,0.00,CLR,,0.16,WeatherDisplay:10.37,2013-08-23 23:04:00,
2013-08-23 18:09:00,81.5,64.8,29.35,East,93,7.0,7.0,57,0.00,CLR,,0.16,WeatherDisplay:10.37,2013-08-23 23:09:00,
2013-08-23 18:14:00,81.3,64.6,29.35,East,86,6.0,6.0,57,0.00,CLR,,0.16,WeatherDisplay:10.37,2013-08-23 23:14:00,
2013-08-23 18:19:00,81.0,64.3,29.35,East,80,6.0,6.0,57,0.00,CLR,,0.16,WeatherDisplay:10.37,2013-08-23 23:19:00,
2013-08-23 18:24:00,80.8,64.1,29.35,ENE,78,6.0,6.0,57,0.00,CLR,,0.16,WeatherDisplay:10.37,2013-08-23 23:24:00,
2013-08-23 18:29:00,80.6,64.0,29.35,ENE,75,6.0,6.0,57,0.00,CLR,,0.16,WeatherDisplay:10.37,2013-08-23 23:29:00,
2013-08-23 18:34:00,80.4,64.3,29.35,East,84,6.0,6.0,58,0.00,CLR,,0.16,WeatherDisplay:10.37,2013-08-23 23:34:00,
2013-08-23 18:39:00,80.4,64.3,29.35,East,87,6.0,6.0,58,0.00,CLR,,0.16,WeatherDisplay:10.37,2013-08-23 23:39:00,
2013-08-23 18:44:00,80.1,64.4,29.35,East,90,6.0,6.0,59,0.00,CLR,,0.16,WeatherDisplay:10.37,2013-08-23 23:44:00,
2013-08-23 18:49:00,79.9,64.3,29.35,East,88,5.0,6.0,59,0.00,CLR,,0.16,WeatherDisplay:10.37,2013-08-23 23:49:00,
2013-08-23 18:54:00,79.5,63.9,29.35,East,90,5.0,5.0,59,0.00,CLR,,0.16,WeatherDisplay:10.37,2013-08-23 23:54:00,
2013-08-23 18:59:00,79.2,63.6,29.35,East,92,5.0,5.0,59,0.00,CLR,,0.16,WeatherDisplay:10.37,2013-08-23 23:59:00,
2013-08-23 19:04:00,79.0,63.4,29.35,East,93,5.0,5.0,59,0.00,CLR,,0.16,WeatherDisplay:10.37,2013-08-24 00:04:00,
2013-08-23 19:09:00,78.8,63.7,29.35,East,95,5.0,5.0,60,0.00,CLR,,0.16,WeatherDisplay:10.37,2013-08-24 00:09:00,
2013-08-23 19:14:00,78.6,64.0,29.35,East,95,3.0,4.0,61,0.00,CLR,,0.16,WeatherDisplay:10.37,2013-08-24 00:14:00,
2013-08-23 19:19:00,78.3,63.7,29.35,East,95,2.0,3.0,61,0.00,CLR,,0.16,WeatherDisplay:10.37,2013-08-24 00:19:00,
2013-08-23 19:24:00,78.1,63.5,29.35,East,95,2.0,3.0,61,0.00,CLR,,0.16,WeatherDisplay:10.37,2013-08-24 00:24:00,
2013-08-23 19:29:00,77.7,63.2,29.35,East,95,2.0,2.0,61,0.00,CLR,,0.16,WeatherDisplay:10.37,2013-08-24 00:29:00,
2013-08-23 19:34:00,77.4,62.9,29.38,East,95,1.0,2.0,61,0.00,CLR,,0.16,WeatherDisplay:10.37,2013-08-24 00:34:00,
2013-08-23 19:39:00,77.2,62.7,29.38,East,95,1.0,2.0,61,0.00,CLR,,0.16,WeatherDisplay:10.37,2013-08-24 00:39:00,
2013-08-23 19:44:00,76.8,63.3,29.38,East,95,1.0,1.0,63,0.00,CLR,,0.16,WeatherDisplay:10.37,2013-08-24 00:44:00,
2013-08-23 19:49:00,76.5,62.9,29.38,East,95,1.0,1.0,63,0.00,CLR,,0.16,WeatherDisplay:10.37,2013-08-24 00:49:00,
2013-08-23 19:54:00,76.3,62.8,29.38,East,95,1.0,1.0,63,0.00,CLR,,0.16,WeatherDisplay:10.37,2013-08-24 00:54:00,
2013-08-23 19:59:00,75.9,62.4,29.38,East,95,1.0,1.0,63,0.00,CLR,,0.16,WeatherDisplay:10.37,2013-08-24 00:59:00,
2013-08-23 20:04:00,75.9,62.9,29.38,East,95,0.0,1.0,64,0.00,CLR,,0.16,WeatherDisplay:10.37,2013-08-24 01:04:00,
2013-08-23 20:09:00,75.7,62.7,29.38,East,95,0.0,1.0,64,0.00,CLR,,0.16,WeatherDisplay:10.37,2013-08-24 01:09:00,
2013-08-23 20:14:00,75.4,62.4,29.38,East,95,0.0,0.0,64,0.00,CLR,,0.16,WeatherDisplay:10.37,2013-08-24 01:14:00,
2013-08-23 20:19:00,75.0,62.9,29.38,East,95,0.0,0.0,66,0.00,CLR,,0.16,WeatherDisplay:10.37,2013-08-24 01:19:00,
2013-08-23 20:24:00,74.8,62.7,29.38,East,95,0.0,0.0,66,0.00,CLR,,0.16,WeatherDisplay:10.37,2013-08-24 01:24:00,
2013-08-23 20:29:00,74.7,62.5,29.38,East,95,0.0,0.0,66,0.00,CLR,,0.16,WeatherDisplay:10.37,2013-08-24 01:29:00,
2013-08-23 20:34:00,74.5,62.4,29.38,East,95,0.0,0.0,66,0.00,CLR,,0.16,WeatherDisplay:10.37,2013-08-24 01:34:00,
2013-08-23 20:39:00,74.5,62.4,29.38,East,95,0.0,0.0,66,0.00,CLR,,0.16,WeatherDisplay:10.37,2013-08-24 01:39:00,
2013-08-23 20:44:00,74.3,62.2,29.38,East,95,0.0,0.0,66,0.00,CLR,,0.16,WeatherDisplay:10.37,2013-08-24 01:44:00,
2013-08-23 20:49:00,73.9,62.3,29.38,East,95,0.0,0.0,67,0.00,CLR,,0.16,WeatherDisplay:10.37,2013-08-24 01:49:00,
2013-08-23 20:54:00,73.6,61.9,29.38,East,95,0.0,0.0,67,0.00,CLR,,0.16,WeatherDisplay:10.37,2013-08-24 01:54:00,
2013-08-23 20:59:00,73.0,62.3,29.38,East,95,0.0,0.0,69,0.00,CLR,,0.16,WeatherDisplay:10.37,2013-08-24 01:59:00,
2013-08-23 21:04:00,72.7,61.9,29.38,East,95,0.0,0.0,69,0.00,CLR,,0.16,WeatherDisplay:10.37,2013-08-24 02:04:00,
2013-08-23 21:09:00,72.5,61.7,29.38,East,95,0.0,0.0,69,0.00,CLR,,0.16,WeatherDisplay:10.37,2013-08-24 02:09:00,
2013-08-23 21:14:00,72.5,62.2,29.38,East,95,0.0,0.0,70,0.00,CLR,,0.16,WeatherDisplay:10.37,2013-08-24 02:14:00,
2013-08-23 21:19:00,72.7,62.7,29.38,East,95,0.0,0.0,71,0.00,CLR,,0.16,WeatherDisplay:10.37,2013-08-24 02:19:00,
2013-08-23 21:24:00,72.5,62.6,29.38,East,95,0.0,0.0,71,0.00,CLR,,0.16,WeatherDisplay:10.37,2013-08-24 02:24:00,
2013-08-23 21:29:00,72.5,62.6,29.41,East,95,0.0,0.0,71,0.00,CLR,,0.16,WeatherDisplay:10.37,2013-08-24 02:29:00,
2013-08-23 21:34:00,72.5,62.6,29.41,East,95,0.0,0.0,71,0.00,CLR,,0.16,WeatherDisplay:10.37,2013-08-24 02:34:00,
2013-08-23 21:39:00,72.9,62.9,29.41,East,95,0.0,0.0,71,0.00,CLR,,0.16,WeatherDisplay:10.37,2013-08-24 02:39:00,
2013-08-23 21:44:00,73.0,63.5,29.41,East,95,0.0,0.0,72,0.00,CLR,,0.16,WeatherDisplay:10.37,2013-08-24 02:44:00,
2013-08-23 21:49:00,73.0,63.1,29.41,East,95,0.0,0.0,71,0.00,CLR,,0.16,WeatherDisplay:10.37,2013-08-24 02:49:00,
2013-08-23 21:54:00,73.2,63.2,29.41,East,95,0.0,0.0,71,0.00,CLR,,0.16,WeatherDisplay:10.37,2013-08-24 02:54:00,
2013-08-23 22:04:00,72.9,62.9,29.41,East,95,0.0,0.0,71,0.00,CLR,,0.16,WeatherDisplay:10.37,2013-08-24 03:04:00,
2013-08-23 22:09:00,72.5,62.2,29.41,East,95,0.0,0.0,70,0.00,CLR,,0.16,WeatherDisplay:10.37,2013-08-24 03:09:00,
2013-08-23 22:14:00,72.1,61.8,29.41,East,95,0.0,0.0,70,0.00,CLR,,0.16,WeatherDisplay:10.37,2013-08-24 03:14:00,
2013-08-23 22:19:00,72.0,61.6,29.41,East,95,0.0,0.0,70,0.00,CLR,,0.16,WeatherDisplay:10.37,2013-08-24 03:19:00,
2013-08-23 22:24:00,72.0,61.6,29.41,East,95,0.0,0.0,70,0.00,CLR,,0.16,WeatherDisplay:10.37,2013-08-24 03:24:00,
2013-08-23 22:29:00,71.8,61.9,29.41,East,95,0.0,0.0,71,0.00,CLR,,0.16,WeatherDisplay:10.37,2013-08-24 03:29:00,
2013-08-23 22:34:00,71.6,61.7,29.41,East,95,0.0,0.0,71,0.00,CLR,,0.16,WeatherDisplay:10.37,2013-08-24 03:34:00,
2013-08-23 22:39:00,71.4,61.5,29.41,East,95,0.0,0.0,71,0.00,CLR,,0.16,WeatherDisplay:10.37,2013-08-24 03:39:00,
2013-08-23 22:44:00,71.2,61.7,29.41,East,95,0.0,0.0,72,0.00,CLR,,0.16,WeatherDisplay:10.37,2013-08-24 03:44:00,
2013-08-23 22:49:00,71.2,61.7,29.41,East,95,0.0,0.0,72,0.00,CLR,,0.16,WeatherDisplay:10.37,2013-08-24 03:49:00,
2013-08-23 22:54:00,71.2,61.7,29.41,East,95,0.0,0.0,72,0.00,CLR,,0.16,WeatherDisplay:10.37,2013-08-24 03:54:00,
2013-08-23 22:59:00,71.1,61.6,29.41,East,95,0.0,0.0,72,0.00,CLR,,0.16,WeatherDisplay:10.37,2013-08-24 03:59:00,
2013-08-23 23:04:00,70.7,61.6,29.41,East,95,0.0,0.0,73,0.00,CLR,,0.16,WeatherDisplay:10.37,2013-08-24 04:04:00,
2013-08-23 23:09:00,70.7,61.6,29.41,East,95,0.0,0.0,73,0.00,CLR,,0.16,WeatherDisplay:10.37,2013-08-24 04:09:00,
2013-08-23 23:14:00,70.7,61.6,29.41,East,95,0.0,0.0,73,0.00,CLR,,0.16,WeatherDisplay:10.37,2013-08-24 04:14:00,
2013-08-23 23:19:00,70.7,61.6,29.41,East,95,0.0,0.0,73,0.00,CLR,,0.16,WeatherDisplay:10.37,2013-08-24 04:19:00,
2013-08-23 23:24:00,70.7,61.6,29.41,East,95,0.0,0.0,73,0.00,CLR,,0.16,WeatherDisplay:10.37,2013-08-24 04:24:00,
2013-08-23 23:29:00,70.5,61.8,29.41,East,95,0.0,0.0,74,0.00,CLR,,0.16,WeatherDisplay:10.37,2013-08-24 04:29:00,
2013-08-23 23:34:00,70.3,61.3,29.41,East,95,0.0,0.0,73,0.00,CLR,,0.16,WeatherDisplay:10.37,2013-08-24 04:34:00,
2013-08-23 23:39:00,70.2,61.1,29.41,East,95,0.0,0.0,73,0.00,CLR,,0.16,WeatherDisplay:10.37,2013-08-24 04:39:00,
2013-08-23 23:44:00,70.0,60.9,29.41,East,95,0.0,0.0,73,0.00,CLR,,0.16,WeatherDisplay:10.37,2013-08-24 04:44:00,
2013-08-23 23:49:00,69.4,60.4,29.41,East,95,0.0,0.0,73,0.00,CLR,,0.16,WeatherDisplay:10.37,2013-08-24 04:49:00,
2013-08-23 23:54:00,69.3,60.2,29.41,East,95,0.0,0.0,73,0.00,CLR,,0.16,WeatherDisplay:10.37,2013-08-24 04:54:00,
2013-08-23 23:59:00,68.7,59.7,29.41,East,95,0.0,0.0,73,0.00,CLR,,0.00,WeatherDisplay:10.37,2013-08-24 04:59:00,